createdAt,value
2018-08-17T12:51:59.827Z,4.10
2018-08-17T12:52:59.821Z,5.20
2018-08-17T12:53:59.785Z,6.80
2018-08-17T12:54:59.882Z,8.80
2018-08-17T12:55:59.713Z,4.40
2018-08-17T12:56:59.678Z,3.00
2018-08-17T12:57:59.735Z,2.80
2018-08-17T12:58:59.672Z,4.50
2018-08-17T12:59:59.657Z,3.20
2018-08-17T13:00:59.665Z,3.70
2018-08-17T13:01:59.628Z,3.10
2018-08-17T13:02:59.630Z,3.10
2018-08-17T13:03:59.616Z,3.30
2018-08-17T13:04:59.601Z,3.10
2018-08-17T13:05:59.610Z,2.70
2018-08-17T13:06:59.585Z,2.80
2018-08-17T13:07:59.564Z,3.50
2018-08-17T13:08:59.583Z,3.50
2018-08-17T13:09:59.555Z,3.60
2018-08-17T13:11:00.140Z,2.90
2018-08-17T13:11:59.543Z,2.70
2018-08-17T13:12:59.521Z,2.90
2018-08-17T13:13:59.531Z,3.30
2018-08-17T13:14:59.493Z,3.40
2018-08-17T13:15:59.478Z,3.00
2018-08-17T13:16:59.465Z,3.60
2018-08-17T13:17:59.565Z,3.30
2018-08-17T13:18:59.467Z,3.10
2018-08-17T13:19:59.452Z,2.80
2018-08-17T13:20:59.460Z,2.80
2018-08-17T13:21:59.422Z,3.10
2018-08-17T13:22:59.431Z,3.00
2018-08-17T13:23:59.427Z,2.50
2018-08-17T13:24:59.395Z,3.00
2018-08-17T13:27:09.805Z,2.80
2018-08-17T13:28:09.672Z,2.80
2018-08-17T13:29:09.642Z,2.90
2018-08-17T13:30:09.610Z,3.20
2018-08-17T13:31:09.643Z,2.90
2018-08-17T13:32:09.569Z,2.60
2018-08-17T13:33:09.608Z,2.70
2018-08-17T13:34:09.588Z,3.20
2018-08-17T13:35:09.553Z,3.20
2018-08-17T13:36:09.650Z,3.00
2018-08-17T13:37:09.551Z,2.80
2018-08-17T13:38:09.540Z,2.70
2018-08-17T13:39:09.490Z,3.00
2018-08-17T13:40:09.482Z,3.00
2018-08-17T13:41:09.488Z,3.00
2018-08-17T13:42:09.571Z,3.10
2018-08-17T13:43:09.485Z,2.80
2018-08-17T13:44:09.468Z,8.70
2018-08-17T13:45:09.451Z,2.90
2018-08-17T13:46:09.420Z,2.70
2018-08-17T13:47:09.456Z,3.40
2018-08-17T13:48:09.455Z,2.70
2018-08-17T13:49:09.413Z,3.00
2018-08-17T13:50:09.374Z,3.10
2018-08-17T13:51:09.355Z,3.30
2018-08-17T13:52:09.425Z,2.80
2018-08-17T13:53:09.364Z,2.90
2018-08-17T13:54:09.347Z,2.70
2018-08-17T13:55:09.336Z,2.80
2018-08-17T13:56:09.311Z,3.00
2018-08-17T13:57:09.349Z,3.00
2018-08-17T13:58:09.324Z,3.50
2018-08-17T13:59:09.482Z,2.80
2018-08-17T14:00:09.274Z,2.90
2018-08-17T14:01:09.245Z,3.10
2018-08-17T14:02:09.290Z,2.90
2018-08-17T14:03:09.220Z,2.80
2018-08-17T14:04:09.219Z,2.50
2018-08-17T14:05:09.224Z,3.40
2018-08-17T14:06:09.194Z,3.50
2018-08-17T14:07:09.174Z,2.90
2018-08-17T14:08:09.235Z,3.20
2018-08-17T14:09:09.164Z,2.70
2018-08-17T14:10:09.256Z,3.10
2018-08-17T14:11:09.143Z,2.80
2018-08-17T14:12:09.124Z,2.60
2018-08-17T14:13:09.121Z,2.90
2018-08-17T14:14:09.111Z,2.90
2018-08-17T14:15:09.092Z,3.40
2018-08-17T14:16:09.101Z,3.70
2018-08-17T14:17:09.079Z,2.70
2018-08-17T14:18:09.053Z,2.70
2018-08-17T14:19:09.060Z,2.50
2018-08-17T14:20:09.041Z,2.90
2018-08-17T14:21:09.030Z,2.50
2018-08-17T14:22:09.089Z,3.80
2018-08-17T14:23:09.036Z,3.40
2018-08-17T14:24:09.012Z,3.10
2018-08-17T14:25:08.981Z,3.30
2018-08-17T14:26:08.973Z,3.10
2018-08-17T14:27:08.968Z,3.30
2018-08-17T14:28:09.097Z,3.20
2018-08-17T14:29:08.952Z,4.60
2018-08-17T14:30:08.931Z,3.20
2018-08-17T14:31:08.924Z,2.70
2018-08-17T14:32:08.913Z,2.80
2018-08-17T14:33:08.908Z,3.20
2018-08-17T14:34:08.925Z,2.80
2018-08-17T14:35:08.889Z,2.90
2018-08-17T14:36:08.872Z,3.00
2018-08-17T14:37:08.861Z,2.60
2018-08-17T14:38:08.846Z,2.70
2018-08-17T14:39:08.844Z,2.50
2018-08-17T14:40:08.845Z,3.20
2018-08-17T14:41:15.393Z,2.70
2018-08-17T14:42:08.809Z,2.40
2018-08-17T14:43:08.796Z,2.70
2018-08-17T14:44:08.798Z,3.20
2018-08-17T14:45:08.777Z,3.00
2018-08-17T14:46:08.786Z,3.70
2018-08-17T14:47:08.756Z,3.20
2018-08-17T14:48:08.744Z,2.90
2018-08-17T14:49:08.746Z,2.80
2018-08-17T14:50:08.721Z,3.00
2018-08-17T14:51:08.710Z,2.60
2018-08-17T14:52:08.734Z,2.60
2018-08-17T14:53:08.700Z,2.90
2018-08-17T14:54:08.698Z,3.50
2018-08-17T14:55:08.664Z,4.00
2018-08-17T14:56:08.657Z,3.50
2018-08-17T14:57:08.644Z,3.30
2018-08-17T14:58:08.668Z,3.90
2018-08-17T14:59:08.625Z,3.50
2018-08-17T15:00:08.650Z,3.30
2018-08-17T15:01:08.626Z,3.70
2018-08-17T15:02:08.595Z,3.90
2018-08-17T15:03:08.577Z,3.30
2018-08-17T15:04:08.587Z,3.50
2018-08-17T15:05:08.565Z,4.60
2018-08-17T15:06:08.560Z,3.70
2018-08-17T15:07:08.536Z,3.20
2018-08-17T15:08:08.532Z,3.30
2018-08-17T15:09:08.519Z,4.10
2018-08-17T15:10:08.530Z,4.00
2018-08-17T15:11:08.508Z,3.80
2018-08-17T15:12:08.481Z,3.30
2018-08-17T15:13:08.591Z,3.40
2018-08-17T15:14:08.465Z,2.70
2018-08-17T15:15:08.453Z,3.30
2018-08-17T15:16:08.472Z,3.90
2018-08-17T15:17:08.427Z,3.00
2018-08-17T15:18:08.418Z,2.80
2018-08-17T15:19:08.414Z,3.00
2018-08-17T15:20:08.455Z,3.10
2018-08-17T15:21:08.400Z,3.60
2018-08-17T15:22:08.394Z,3.50
2018-08-17T15:23:09.350Z,3.40
2018-08-17T15:24:08.353Z,2.50
2018-08-17T15:25:08.345Z,3.00
2018-08-17T15:26:08.339Z,5.30
2018-08-17T15:27:08.339Z,6.10
2018-08-17T15:28:08.300Z,2.80
2018-08-17T15:29:08.307Z,4.60
2018-08-17T15:30:08.293Z,5.70
2018-08-17T15:31:08.292Z,3.70
2018-08-17T15:32:08.267Z,4.60
2018-08-17T15:33:08.297Z,3.90
2018-08-17T15:34:08.253Z,3.10
2018-08-17T15:35:08.238Z,2.70
2018-08-17T15:36:08.239Z,3.00
2018-08-17T15:37:08.214Z,3.20
2018-08-17T15:38:08.204Z,3.60
2018-08-17T15:39:08.214Z,3.40
2018-08-17T15:40:08.182Z,2.90
2018-08-17T15:41:08.249Z,2.60
2018-08-17T15:42:08.156Z,4.20
2018-08-17T15:43:08.151Z,3.10
2018-08-17T15:44:08.144Z,3.00
2018-08-17T15:45:08.139Z,2.90
2018-08-17T15:46:08.133Z,3.40
2018-08-17T15:47:08.108Z,3.10
2018-08-17T15:48:08.095Z,3.40
2018-08-17T15:49:08.084Z,3.90
2018-08-17T15:50:08.076Z,2.80
2018-08-17T15:51:08.173Z,3.60
2018-08-17T15:52:08.067Z,3.70
2018-08-17T15:53:08.051Z,2.70
2018-08-17T15:54:08.031Z,3.70
2018-08-17T15:55:08.020Z,2.90
2018-08-17T15:56:08.078Z,3.50
2018-08-17T15:57:08.030Z,2.80
2018-08-17T15:58:08.053Z,2.70
2018-08-17T15:59:07.978Z,3.40
2018-08-17T16:00:07.965Z,2.70
2018-08-17T16:01:07.992Z,2.70
2018-08-17T16:02:07.960Z,3.60
2018-08-17T16:03:07.934Z,2.90
2018-08-17T16:04:07.944Z,2.90
2018-08-17T16:05:07.920Z,2.90
2018-08-17T16:06:07.902Z,2.80
2018-08-17T16:07:07.901Z,2.50
2018-08-17T16:08:07.883Z,2.80
2018-08-17T16:09:07.872Z,2.80
2018-08-17T16:10:07.879Z,3.10
2018-08-17T16:11:07.848Z,3.90
2018-08-17T16:12:07.849Z,3.10
2018-08-17T16:13:07.833Z,2.80
2018-08-17T16:14:07.815Z,3.90
2018-08-17T16:15:07.807Z,3.90
2018-08-17T16:16:07.820Z,3.30
2018-08-17T16:17:07.795Z,2.80
2018-08-17T16:18:07.773Z,3.30
2018-08-17T16:19:07.762Z,3.20
2018-08-17T16:20:07.748Z,3.40
2018-08-17T16:21:07.743Z,2.80
2018-08-17T16:22:07.762Z,2.80
2018-08-17T16:23:07.717Z,2.60
2018-08-17T16:24:07.708Z,3.60
2018-08-17T16:25:07.706Z,2.60
2018-08-17T16:26:07.690Z,3.40
2018-08-17T16:27:07.683Z,3.10
2018-08-17T16:28:07.685Z,3.60
2018-08-17T16:29:07.649Z,4.40
2018-08-17T16:30:07.645Z,4.90
2018-08-17T16:31:07.632Z,8.00
2018-08-17T16:32:07.646Z,8.10
2018-08-17T16:33:07.626Z,4.50
2018-08-17T16:34:07.619Z,9.50
2018-08-17T16:35:07.591Z,7.10
2018-08-17T16:36:07.580Z,3.10
2018-08-17T16:37:07.575Z,7.20
2018-08-17T16:38:07.576Z,5.40
2018-08-17T16:39:07.541Z,4.30
2018-08-17T16:40:07.555Z,3.80
2018-08-17T16:41:07.516Z,5.70
2018-08-17T16:42:07.515Z,9.50
2018-08-17T16:43:07.508Z,4.50
2018-08-17T16:44:07.503Z,5.40
2018-08-17T16:45:07.490Z,4.80
2018-08-17T16:46:07.495Z,3.80
2018-08-17T16:47:07.461Z,3.40
2018-08-17T16:48:07.448Z,3.30
2018-08-17T16:49:07.460Z,5.70
2018-08-17T16:50:07.428Z,5.60
2018-08-17T16:51:07.418Z,3.80
2018-08-17T16:52:07.424Z,5.30
2018-08-17T16:53:07.411Z,4.90
2018-08-17T16:54:07.402Z,5.00
2018-08-17T16:55:07.376Z,4.80
2018-08-17T16:56:07.361Z,4.00
2018-08-17T16:57:07.359Z,4.00
2018-08-17T16:58:07.352Z,4.00
2018-08-17T16:59:07.524Z,3.20
2018-08-17T17:00:07.317Z,4.30
2018-08-17T17:01:07.887Z,5.40
2018-08-17T17:02:07.301Z,4.10
2018-08-17T17:03:07.288Z,6.20
2018-08-17T17:04:07.455Z,4.30
2018-08-17T17:05:07.261Z,4.90
2018-08-17T17:06:07.276Z,4.80
2018-08-17T17:07:07.242Z,4.30
2018-08-17T17:08:07.239Z,3.40
2018-08-17T17:09:07.261Z,3.60
2018-08-17T17:10:07.253Z,5.20
2018-08-17T17:11:07.189Z,3.60
2018-08-17T17:12:07.189Z,4.10
2018-08-17T17:13:07.170Z,4.60
2018-08-17T17:14:07.216Z,3.00
2018-08-17T17:15:07.153Z,4.30
2018-08-17T17:16:07.160Z,3.20
2018-08-17T17:17:07.131Z,2.60
2018-08-17T17:18:07.125Z,3.20
2018-08-17T17:19:07.121Z,3.00
2018-08-17T17:20:07.103Z,2.70
2018-08-17T17:21:07.088Z,2.80
2018-08-17T17:22:07.090Z,3.00
2018-08-17T17:23:07.065Z,3.60
2018-08-17T17:24:07.073Z,12.80
2018-08-17T17:25:07.049Z,3.00
2018-08-17T17:26:07.034Z,3.40
2018-08-17T17:27:07.077Z,4.30
2018-08-17T17:28:07.026Z,4.00
2018-08-17T17:29:07.033Z,4.20
2018-08-17T17:30:07.044Z,3.30
2018-08-17T17:31:06.982Z,8.80
2018-08-17T17:32:06.986Z,6.10
2018-08-17T17:33:06.962Z,7.50
2018-08-17T17:34:06.964Z,5.00
2018-08-17T17:35:06.960Z,8.20
2018-08-17T17:36:06.928Z,4.90
2018-08-17T17:37:06.913Z,4.00
2018-08-17T17:38:06.900Z,6.60
2018-08-17T17:39:06.893Z,3.20
2018-08-17T17:40:06.897Z,4.50
2018-08-17T17:41:06.881Z,6.40
2018-08-17T17:42:06.859Z,11.70
2018-08-17T17:43:06.844Z,4.70
2018-08-17T17:44:06.835Z,3.40
2018-08-17T17:45:06.822Z,3.80
2018-08-17T17:46:06.860Z,5.00
2018-08-17T17:47:06.804Z,4.00
2018-08-17T17:48:06.792Z,3.40
2018-08-17T17:49:06.785Z,3.70
2018-08-17T17:50:06.775Z,5.60
2018-08-17T17:51:06.787Z,3.60
2018-08-17T17:52:06.764Z,4.40
2018-08-17T17:53:06.747Z,6.70
2018-08-17T17:54:06.733Z,4.60
2018-08-17T17:55:06.714Z,3.90
2018-08-17T17:56:06.718Z,4.70
2018-08-17T17:57:06.696Z,6.50
2018-08-17T17:58:06.712Z,4.50
2018-08-17T17:59:06.667Z,4.50
2018-08-17T18:00:06.666Z,3.80
2018-08-17T18:01:06.663Z,4.00
2018-08-17T18:02:06.641Z,4.30
2018-08-17T18:03:06.631Z,6.10
2018-08-17T18:04:06.633Z,7.50
2018-08-17T18:05:06.607Z,8.20
2018-08-17T18:06:06.612Z,9.30
2018-08-17T18:07:06.588Z,9.00
2018-08-17T18:08:06.574Z,8.10
2018-08-17T18:09:06.569Z,6.40
2018-08-17T18:10:06.573Z,6.20
2018-08-17T18:11:06.558Z,4.30
2018-08-17T18:12:06.532Z,4.90
2018-08-17T18:13:06.611Z,4.80
2018-08-17T18:14:06.507Z,5.60
2018-08-17T18:15:06.500Z,7.40
2018-08-17T18:16:06.517Z,6.70
2018-08-17T18:17:06.470Z,7.30
2018-08-17T18:18:06.466Z,6.20
2018-08-17T18:19:06.449Z,7.30
2018-08-17T18:20:06.436Z,7.70
2018-08-17T18:21:06.439Z,8.30
2018-08-17T18:22:06.431Z,10.30
2018-08-17T18:23:06.407Z,9.40
2018-08-17T18:24:06.418Z,15.90
2018-08-17T18:25:06.383Z,13.40
2018-08-17T18:26:06.383Z,15.60
2018-08-17T18:27:06.356Z,19.90
2018-08-17T18:28:06.359Z,20.10
2018-08-17T18:29:06.336Z,13.60
2018-08-17T18:30:06.326Z,20.80
2018-08-17T18:31:06.312Z,21.50
2018-08-17T18:32:06.318Z,14.90
2018-08-17T18:33:06.288Z,9.70
2018-08-17T18:34:06.293Z,13.10
2018-08-17T18:35:06.307Z,23.10
2018-08-17T18:36:06.260Z,18.80
2018-08-17T18:37:06.244Z,14.50
2018-08-17T18:38:06.250Z,10.70
2018-08-17T18:39:06.226Z,15.30
2018-08-17T18:40:06.223Z,11.50
2018-08-17T18:41:06.192Z,11.10
2018-08-17T18:42:06.181Z,7.10
2018-08-17T18:43:06.194Z,9.10
2018-08-17T18:44:06.158Z,5.90
2018-08-17T18:45:06.150Z,6.60
2018-08-17T18:46:06.152Z,5.80
2018-08-17T18:47:06.127Z,6.00
2018-08-17T18:48:06.114Z,8.30
2018-08-17T18:49:06.126Z,6.50
2018-08-17T18:50:06.101Z,5.70
2018-08-17T18:51:06.080Z,5.30
2018-08-17T18:52:06.097Z,6.50
2018-08-17T18:53:06.070Z,7.30
2018-08-17T18:54:06.049Z,7.70
2018-08-17T18:55:06.064Z,6.20
2018-08-17T18:56:06.026Z,5.70
2018-08-17T18:57:06.028Z,5.60
2018-08-17T18:58:06.024Z,6.90
2018-08-17T18:59:06.048Z,5.10
2018-08-17T19:00:06.012Z,5.20
2018-08-17T19:01:05.970Z,6.20
2018-08-17T19:02:05.950Z,5.30
2018-08-17T19:03:05.948Z,5.30
2018-08-17T19:04:05.942Z,6.60
2018-08-17T19:05:05.920Z,5.50
2018-08-17T19:06:05.927Z,5.60
2018-08-17T19:07:05.903Z,5.00
2018-08-17T19:08:05.896Z,5.70
2018-08-17T19:09:05.872Z,5.80
2018-08-17T19:10:05.896Z,4.00
2018-08-17T19:11:05.883Z,4.00
2018-08-17T19:12:05.844Z,3.80
2018-08-17T19:13:05.838Z,3.90
2018-08-17T19:14:05.826Z,3.90
2018-08-17T19:15:05.813Z,3.60
2018-08-17T19:16:05.924Z,4.30
2018-08-17T19:17:05.790Z,4.20
2018-08-17T19:18:05.814Z,4.30
2018-08-17T19:19:05.776Z,4.40
2018-08-17T19:20:05.764Z,5.10
2018-08-17T19:21:06.449Z,4.30
2018-08-17T19:22:05.756Z,4.30
2018-08-17T19:23:05.731Z,4.40
2018-08-17T19:24:05.736Z,4.40
2018-08-17T19:25:05.703Z,4.30
2018-08-17T19:26:05.692Z,4.70
2018-08-17T19:27:05.708Z,4.30
2018-08-17T19:28:05.681Z,4.50
2018-08-17T19:29:05.660Z,3.90
2018-08-17T19:30:05.648Z,4.40
2018-08-17T19:31:05.637Z,4.10
2018-08-17T19:32:05.649Z,4.80
2018-08-17T19:33:05.632Z,4.50
2018-08-17T19:34:06.421Z,4.90
2018-08-17T19:35:05.595Z,4.00
2018-08-17T19:36:05.578Z,4.30
2018-08-17T19:37:05.572Z,4.60
2018-08-17T19:38:20.123Z,3.80
2018-08-17T19:39:23.834Z,4.60
2018-08-17T19:40:05.704Z,4.20
2018-08-17T19:41:05.578Z,4.00
2018-08-17T19:43:48.912Z,3.50
